sensor_id;sensor_type;location;lat;lon;timestamp;P1;durP1;ratioP1;P2;durP2;ratioP2
7519;SDS011;3801;48.876;10.184;2023-07-02T00:01:16;3.87;;;2.90;;
7519;SDS011;3801;48.876;10.184;2023-07-02T00:06:19;5.27;;;3.50;;
7519;SDS011;3801;48.876;10.184;2023-07-02T00:11:23;6.00;;;3.70;;
7519;SDS011;3801;48.876;10.184;2023-07-02T00:16:28;4.50;;;4.10;;
7519;SDS011;3801;48.876;10.184;2023-07-02T00:21:32;5.63;;;4.13;;
7519;SDS011;3801;48.876;10.184;2023-07-02T00:26:35;6.40;;;4.40;;
7519;SDS011;3801;48.876;10.184;2023-07-02T00:31:41;3.93;;;3.40;;
7519;SDS011;3801;48.876;10.184;2023-07-02T00:36:45;4.13;;;3.47;;
7519;SDS011;3801;48.876;10.184;2023-07-02T00:41:50;7.67;;;4.27;;
7519;SDS011;3801;48.876;10.184;2023-07-02T00:46:55;4.27;;;3.40;;
7519;SDS011;3801;48.876;10.184;2023-07-02T00:51:59;4.97;;;3.07;;
7519;SDS011;3801;48.876;10.184;2023-07-02T00:57:03;4.33;;;3.33;;
7519;SDS011;3801;48.876;10.184;2023-07-02T01:02:10;4.23;;;2.90;;
7519;SDS011;3801;48.876;10.184;2023-07-02T01:07:15;6.03;;;3.13;;
7519;SDS011;3801;48.876;10.184;2023-07-02T01:12:19;4.37;;;3.60;;
7519;SDS011;3801;48.876;10.184;2023-07-02T01:17:25;5.47;;;3.83;;
7519;SDS011;3801;48.876;10.184;2023-07-02T01:22:31;6.03;;;3.80;;
7519;SDS011;3801;48.876;10.184;2023-07-02T01:27:37;3.53;;;3.20;;
7519;SDS011;3801;48.876;10.184;2023-07-02T01:32:41;6.27;;;3.90;;
7519;SDS011;3801;48.876;10.184;2023-07-02T01:37:46;5.00;;;3.87;;
7519;SDS011;3801;48.876;10.184;2023-07-02T01:42:50;4.20;;;3.40;;
7519;SDS011;3801;48.876;10.184;2023-07-02T01:47:54;4.63;;;3.50;;
7519;SDS011;3801;48.876;10.184;2023-07-02T01:52:59;7.27;;;3.60;;
7519;SDS011;3801;48.876;10.184;2023-07-02T01:58:03;4.87;;;4.30;;
7519;SDS011;3801;48.876;10.184;2023-07-02T02:03:07;4.47;;;3.90;;
7519;SDS011;3801;48.876;10.184;2023-07-02T02:08:12;6.93;;;3.87;;
7519;SDS011;3801;48.876;10.184;2023-07-02T02:13:16;7.50;;;3.77;;
7519;SDS011;3801;48.876;10.184;2023-07-02T02:18:19;4.30;;;3.90;;
7519;SDS011;3801;48.876;10.184;2023-07-02T02:23:24;6.93;;;3.83;;
7519;SDS011;3801;48.876;10.184;2023-07-02T02:28:28;5.23;;;4.30;;
7519;SDS011;3801;48.876;10.184;2023-07-02T02:33:32;4.97;;;4.13;;
7519;SDS011;3801;48.876;10.184;2023-07-02T02:38:40;6.17;;;3.93;;
7519;SDS011;3801;48.876;10.184;2023-07-02T02:43:44;6.50;;;3.87;;
7519;SDS011;3801;48.876;10.184;2023-07-02T02:48:51;4.20;;;3.60;;
7519;SDS011;3801;48.876;10.184;2023-07-02T02:53:56;5.07;;;3.90;;
7519;SDS011;3801;48.876;10.184;2023-07-02T02:59:00;4.33;;;3.63;;
7519;SDS011;3801;48.876;10.184;2023-07-02T03:04:04;5.40;;;3.70;;
7519;SDS011;3801;48.876;10.184;2023-07-02T03:09:12;4.87;;;3.80;;
7519;SDS011;3801;48.876;10.184;2023-07-02T03:14:15;5.40;;;4.20;;
7519;SDS011;3801;48.876;10.184;2023-07-02T03:19:19;4.83;;;4.00;;
7519;SDS011;3801;48.876;10.184;2023-07-02T03:24:24;5.97;;;4.17;;
7519;SDS011;3801;48.876;10.184;2023-07-02T03:29:27;5.03;;;4.13;;
7519;SDS011;3801;48.876;10.184;2023-07-02T03:34:31;5.33;;;3.70;;
7519;SDS011;3801;48.876;10.184;2023-07-02T03:39:36;7.20;;;3.67;;
7519;SDS011;3801;48.876;10.184;2023-07-02T03:44:39;6.23;;;3.87;;
7519;SDS011;3801;48.876;10.184;2023-07-02T03:49:43;4.20;;;3.80;;
7519;SDS011;3801;48.876;10.184;2023-07-02T03:54:48;5.83;;;3.77;;
7519;SDS011;3801;48.876;10.184;2023-07-02T03:59:52;7.03;;;3.47;;
7519;SDS011;3801;48.876;10.184;2023-07-02T04:04:57;4.60;;;3.63;;
7519;SDS011;3801;48.876;10.184;2023-07-02T04:10:02;5.83;;;4.30;;
7519;SDS011;3801;48.876;10.184;2023-07-02T04:15:07;6.90;;;3.87;;
7519;SDS011;3801;48.876;10.184;2023-07-02T04:20:11;5.70;;;3.60;;
7519;SDS011;3801;48.876;10.184;2023-07-02T04:25:16;5.40;;;3.90;;
7519;SDS011;3801;48.876;10.184;2023-07-02T04:30:35;5.63;;;4.17;;
7519;SDS011;3801;48.876;10.184;2023-07-02T04:35:39;6.50;;;4.33;;
7519;SDS011;3801;48.876;10.184;2023-07-02T04:40:44;8.47;;;4.70;;
7519;SDS011;3801;48.876;10.184;2023-07-02T04:45:48;5.73;;;4.47;;
7519;SDS011;3801;48.876;10.184;2023-07-02T04:50:51;10.73;;;5.70;;
7519;SDS011;3801;48.876;10.184;2023-07-02T04:55:56;9.90;;;6.07;;
7519;SDS011;3801;48.876;10.184;2023-07-02T05:01:00;10.90;;;5.67;;
7519;SDS011;3801;48.876;10.184;2023-07-02T05:06:04;10.30;;;5.73;;
7519;SDS011;3801;48.876;10.184;2023-07-02T05:11:09;11.37;;;5.73;;
7519;SDS011;3801;48.876;10.184;2023-07-02T05:16:13;9.40;;;5.77;;
7519;SDS011;3801;48.876;10.184;2023-07-02T05:21:17;8.80;;;5.27;;
7519;SDS011;3801;48.876;10.184;2023-07-02T05:26:22;8.07;;;5.40;;
7519;SDS011;3801;48.876;10.184;2023-07-02T05:31:26;6.87;;;5.57;;
7519;SDS011;3801;48.876;10.184;2023-07-02T05:36:29;9.33;;;6.37;;
7519;SDS011;3801;48.876;10.184;2023-07-02T05:41:35;10.97;;;7.03;;
7519;SDS011;3801;48.876;10.184;2023-07-02T05:46:38;10.70;;;7.77;;
7519;SDS011;3801;48.876;10.184;2023-07-02T05:51:44;11.90;;;7.70;;
7519;SDS011;3801;48.876;10.184;2023-07-02T05:56:49;14.90;;;6.97;;
7519;SDS011;3801;48.876;10.184;2023-07-02T06:01:53;10.40;;;7.13;;
7519;SDS011;3801;48.876;10.184;2023-07-02T06:06:57;12.13;;;7.80;;
7519;SDS011;3801;48.876;10.184;2023-07-02T06:12:02;11.20;;;7.77;;
7519;SDS011;3801;48.876;10.184;2023-07-02T06:17:06;9.20;;;7.30;;
7519;SDS011;3801;48.876;10.184;2023-07-02T06:22:14;12.93;;;7.37;;
7519;SDS011;3801;48.876;10.184;2023-07-02T06:27:18;13.20;;;8.20;;
7519;SDS011;3801;48.876;10.184;2023-07-02T06:32:22;13.63;;;8.57;;
7519;SDS011;3801;48.876;10.184;2023-07-02T06:37:26;15.97;;;7.33;;
7519;SDS011;3801;48.876;10.184;2023-07-02T06:42:31;13.20;;;7.17;;
7519;SDS011;3801;48.876;10.184;2023-07-02T06:47:35;14.23;;;6.37;;
7519;SDS011;3801;48.876;10.184;2023-07-02T06:52:38;11.70;;;8.17;;
7519;SDS011;3801;48.876;10.184;2023-07-02T06:57:43;9.53;;;6.37;;
7519;SDS011;3801;48.876;10.184;2023-07-02T07:02:47;12.27;;;7.00;;
7519;SDS011;3801;48.876;10.184;2023-07-02T07:07:51;12.87;;;7.50;;
7519;SDS011;3801;48.876;10.184;2023-07-02T07:12:56;14.57;;;6.50;;
7519;SDS011;3801;48.876;10.184;2023-07-02T07:17:59;13.70;;;6.83;;
7519;SDS011;3801;48.876;10.184;2023-07-02T07:23:03;12.37;;;7.40;;
7519;SDS011;3801;48.876;10.184;2023-07-02T07:28:08;13.90;;;8.07;;
7519;SDS011;3801;48.876;10.184;2023-07-02T07:33:17;12.13;;;7.50;;
7519;SDS011;3801;48.876;10.184;2023-07-02T07:38:20;13.30;;;8.03;;
7519;SDS011;3801;48.876;10.184;2023-07-02T07:43:25;11.60;;;7.77;;
7519;SDS011;3801;48.876;10.184;2023-07-02T07:48:29;15.30;;;8.27;;
7519;SDS011;3801;48.876;10.184;2023-07-02T07:53:33;15.13;;;8.40;;
7519;SDS011;3801;48.876;10.184;2023-07-02T07:58:44;17.53;;;8.93;;
7519;SDS011;3801;48.876;10.184;2023-07-02T08:03:48;16.23;;;9.50;;
7519;SDS011;3801;48.876;10.184;2023-07-02T08:08:51;17.97;;;9.67;;
7519;SDS011;3801;48.876;10.184;2023-07-02T08:13:57;17.73;;;10.00;;
7519;SDS011;3801;48.876;10.184;2023-07-02T08:19:01;15.13;;;8.87;;
7519;SDS011;3801;48.876;10.184;2023-07-02T08:24:05;14.80;;;8.73;;
7519;SDS011;3801;48.876;10.184;2023-07-02T08:29:10;17.07;;;9.13;;
7519;SDS011;3801;48.876;10.184;2023-07-02T08:34:13;15.87;;;9.20;;
7519;SDS011;3801;48.876;10.184;2023-07-02T08:39:17;13.67;;;8.77;;
7519;SDS011;3801;48.876;10.184;2023-07-02T08:44:22;14.73;;;8.77;;
7519;SDS011;3801;48.876;10.184;2023-07-02T08:49:25;17.37;;;9.10;;
7519;SDS011;3801;48.876;10.184;2023-07-02T08:54:29;16.03;;;9.37;;
7519;SDS011;3801;48.876;10.184;2023-07-02T08:59:33;14.23;;;9.67;;
7519;SDS011;3801;48.876;10.184;2023-07-02T09:04:38;18.63;;;9.57;;
7519;SDS011;3801;48.876;10.184;2023-07-02T09:09:45;18.63;;;9.20;;
7519;SDS011;3801;48.876;10.184;2023-07-02T09:14:55;16.53;;;9.73;;
7519;SDS011;3801;48.876;10.184;2023-07-02T09:19:59;14.45;;;9.98;;
7519;SDS011;3801;48.876;10.184;2023-07-02T09:25:04;15.60;;;9.35;;
7519;SDS011;3801;48.876;10.184;2023-07-02T09:30:10;16.75;;;9.98;;
7519;SDS011;3801;48.876;10.184;2023-07-02T09:35:15;15.60;;;9.50;;
7519;SDS011;3801;48.876;10.184;2023-07-02T09:40:19;15.68;;;9.95;;
7519;SDS011;3801;48.876;10.184;2023-07-02T09:45:24;14.18;;;10.05;;
7519;SDS011;3801;48.876;10.184;2023-07-02T09:50:27;16.15;;;9.52;;
7519;SDS011;3801;48.876;10.184;2023-07-02T09:55:31;16.30;;;10.70;;
7519;SDS011;3801;48.876;10.184;2023-07-02T10:00:36;16.77;;;9.48;;
7519;SDS011;3801;48.876;10.184;2023-07-02T10:05:40;16.65;;;10.35;;
7519;SDS011;3801;48.876;10.184;2023-07-02T10:10:44;15.40;;;10.00;;
7519;SDS011;3801;48.876;10.184;2023-07-02T10:15:49;15.05;;;9.90;;
7519;SDS011;3801;48.876;10.184;2023-07-02T10:21:12;14.63;;;10.18;;
7519;SDS011;3801;48.876;10.184;2023-07-02T10:26:16;13.93;;;9.75;;
7519;SDS011;3801;48.876;10.184;2023-07-02T10:31:21;17.05;;;10.50;;
7519;SDS011;3801;48.876;10.184;2023-07-02T10:36:25;14.13;;;9.70;;
7519;SDS011;3801;48.876;10.184;2023-07-02T10:41:29;13.95;;;9.57;;
7519;SDS011;3801;48.876;10.184;2023-07-02T10:46:33;15.35;;;9.90;;
7519;SDS011;3801;48.876;10.184;2023-07-02T10:51:38;14.55;;;9.65;;
7519;SDS011;3801;48.876;10.184;2023-07-02T10:56:41;14.23;;;9.30;;
7519;SDS011;3801;48.876;10.184;2023-07-02T11:01:50;15.32;;;8.88;;
7519;SDS011;3801;48.876;10.184;2023-07-02T11:06:53;14.10;;;10.05;;
7519;SDS011;3801;48.876;10.184;2023-07-02T11:11:57;14.38;;;8.85;;
7519;SDS011;3801;48.876;10.184;2023-07-02T11:17:03;13.65;;;9.20;;
7519;SDS011;3801;48.876;10.184;2023-07-02T11:22:07;16.83;;;9.18;;
7519;SDS011;3801;48.876;10.184;2023-07-02T11:27:11;14.48;;;9.90;;
7519;SDS011;3801;48.876;10.184;2023-07-02T11:32:24;12.05;;;9.18;;
7519;SDS011;3801;48.876;10.184;2023-07-02T11:37:28;15.48;;;9.90;;
7519;SDS011;3801;48.876;10.184;2023-07-02T11:42:31;14.55;;;10.55;;
7519;SDS011;3801;48.876;10.184;2023-07-02T11:47:37;14.93;;;9.55;;
7519;SDS011;3801;48.876;10.184;2023-07-02T11:52:40;15.90;;;9.68;;
7519;SDS011;3801;48.876;10.184;2023-07-02T11:57:44;16.67;;;10.00;;
7519;SDS011;3801;48.876;10.184;2023-07-02T12:02:50;15.82;;;9.90;;
7519;SDS011;3801;48.876;10.184;2023-07-02T12:07:54;16.98;;;10.98;;
7519;SDS011;3801;48.876;10.184;2023-07-02T12:12:57;14.10;;;9.90;;
7519;SDS011;3801;48.876;10.184;2023-07-02T12:18:02;16.90;;;11.52;;
7519;SDS011;3801;48.876;10.184;2023-07-02T12:23:06;13.88;;;10.45;;
7519;SDS011;3801;48.876;10.184;2023-07-02T12:28:10;16.50;;;10.93;;
7519;SDS011;3801;48.876;10.184;2023-07-02T12:33:16;15.00;;;10.55;;
7519;SDS011;3801;48.876;10.184;2023-07-02T12:38:21;17.05;;;10.68;;
7519;SDS011;3801;48.876;10.184;2023-07-02T12:43:24;15.02;;;10.90;;
7519;SDS011;3801;48.876;10.184;2023-07-02T12:48:29;17.08;;;11.98;;
7519;SDS011;3801;48.876;10.184;2023-07-02T12:53:33;17.85;;;12.18;;
7519;SDS011;3801;48.876;10.184;2023-07-02T12:58:36;19.38;;;12.05;;
7519;SDS011;3801;48.876;10.184;2023-07-02T13:03:45;17.13;;;11.45;;
7519;SDS011;3801;48.876;10.184;2023-07-02T13:08:50;15.88;;;10.95;;
7519;SDS011;3801;48.876;10.184;2023-07-02T13:13:53;16.20;;;10.68;;
7519;SDS011;3801;48.876;10.184;2023-07-02T13:18:58;17.90;;;10.60;;
7519;SDS011;3801;48.876;10.184;2023-07-02T13:24:03;17.85;;;11.00;;
7519;SDS011;3801;48.876;10.184;2023-07-02T13:29:07;16.20;;;11.10;;
7519;SDS011;3801;48.876;10.184;2023-07-02T13:34:12;17.67;;;12.07;;
7519;SDS011;3801;48.876;10.184;2023-07-02T13:39:15;16.33;;;10.82;;
7519;SDS011;3801;48.876;10.184;2023-07-02T13:44:18;16.17;;;11.02;;
7519;SDS011;3801;48.876;10.184;2023-07-02T13:49:23;15.63;;;10.45;;
7519;SDS011;3801;48.876;10.184;2023-07-02T13:54:27;18.77;;;11.60;;
7519;SDS011;3801;48.876;10.184;2023-07-02T13:59:31;13.90;;;11.20;;
7519;SDS011;3801;48.876;10.184;2023-07-02T14:04:35;15.57;;;10.70;;
7519;SDS011;3801;48.876;10.184;2023-07-02T14:09:38;17.95;;;11.50;;
7519;SDS011;3801;48.876;10.184;2023-07-02T14:14:43;23.48;;;11.38;;
7519;SDS011;3801;48.876;10.184;2023-07-02T14:19:48;19.02;;;10.75;;
7519;SDS011;3801;48.876;10.184;2023-07-02T14:24:52;17.50;;;10.68;;
7519;SDS011;3801;48.876;10.184;2023-07-02T14:29:57;16.58;;;10.88;;
7519;SDS011;3801;48.876;10.184;2023-07-02T14:35:03;14.98;;;11.45;;
7519;SDS011;3801;48.876;10.184;2023-07-02T14:40:06;15.80;;;11.52;;
7519;SDS011;3801;48.876;10.184;2023-07-02T14:45:12;19.60;;;12.15;;
7519;SDS011;3801;48.876;10.184;2023-07-02T14:50:15;16.70;;;11.88;;
7519;SDS011;3801;48.876;10.184;2023-07-02T14:55:20;16.75;;;11.48;;
7519;SDS011;3801;48.876;10.184;2023-07-02T15:00:25;17.17;;;11.98;;
7519;SDS011;3801;48.876;10.184;2023-07-02T15:05:29;17.70;;;11.57;;
7519;SDS011;3801;48.876;10.184;2023-07-02T15:10:32;16.17;;;11.15;;
7519;SDS011;3801;48.876;10.184;2023-07-02T15:15:37;19.38;;;12.25;;
7519;SDS011;3801;48.876;10.184;2023-07-02T15:20:42;19.40;;;12.68;;
7519;SDS011;3801;48.876;10.184;2023-07-02T15:25:49;18.88;;;12.25;;
7519;SDS011;3801;48.876;10.184;2023-07-02T15:30:57;16.65;;;11.50;;
7519;SDS011;3801;48.876;10.184;2023-07-02T15:36:01;17.67;;;11.75;;
7519;SDS011;3801;48.876;10.184;2023-07-02T15:41:07;19.42;;;11.85;;
7519;SDS011;3801;48.876;10.184;2023-07-02T15:46:14;18.95;;;12.55;;
7519;SDS011;3801;48.876;10.184;2023-07-02T15:51:18;17.70;;;11.77;;
7519;SDS011;3801;48.876;10.184;2023-07-02T15:56:21;19.90;;;11.82;;
7519;SDS011;3801;48.876;10.184;2023-07-02T16:01:26;17.15;;;11.85;;
7519;SDS011;3801;48.876;10.184;2023-07-02T16:06:30;16.90;;;11.77;;
7519;SDS011;3801;48.876;10.184;2023-07-02T16:11:36;18.48;;;12.02;;
7519;SDS011;3801;48.876;10.184;2023-07-02T16:16:46;19.08;;;11.77;;
7519;SDS011;3801;48.876;10.184;2023-07-02T16:21:57;17.30;;;11.77;;
7519;SDS011;3801;48.876;10.184;2023-07-02T16:27:01;16.90;;;11.65;;
7519;SDS011;3801;48.876;10.184;2023-07-02T16:32:10;17.38;;;11.48;;
7519;SDS011;3801;48.876;10.184;2023-07-02T16:37:14;21.17;;;12.20;;
7519;SDS011;3801;48.876;10.184;2023-07-02T16:42:18;15.55;;;11.10;;
7519;SDS011;3801;48.876;10.184;2023-07-02T16:47:23;17.83;;;11.93;;
7519;SDS011;3801;48.876;10.184;2023-07-02T16:52:26;15.20;;;11.10;;
7519;SDS011;3801;48.876;10.184;2023-07-02T16:57:29;16.65;;;11.55;;
7519;SDS011;3801;48.876;10.184;2023-07-02T17:02:34;18.45;;;11.63;;
7519;SDS011;3801;48.876;10.184;2023-07-02T17:07:38;16.80;;;11.43;;
7519;SDS011;3801;48.876;10.184;2023-07-02T17:12:41;15.30;;;11.40;;
7519;SDS011;3801;48.876;10.184;2023-07-02T17:17:46;17.15;;;10.95;;
7519;SDS011;3801;48.876;10.184;2023-07-02T17:22:49;19.40;;;12.32;;
7519;SDS011;3801;48.876;10.184;2023-07-02T17:27:53;15.60;;;11.32;;
7519;SDS011;3801;48.876;10.184;2023-07-02T17:32:58;22.05;;;12.38;;
7519;SDS011;3801;48.876;10.184;2023-07-02T17:38:03;17.48;;;10.65;;
7519;SDS011;3801;48.876;10.184;2023-07-02T17:43:06;17.55;;;11.18;;
7519;SDS011;3801;48.876;10.184;2023-07-02T17:48:11;15.47;;;10.73;;
7519;SDS011;3801;48.876;10.184;2023-07-02T17:53:14;16.87;;;11.10;;
7519;SDS011;3801;48.876;10.184;2023-07-02T17:58:18;17.97;;;10.43;;
7519;SDS011;3801;48.876;10.184;2023-07-02T18:03:22;17.67;;;11.80;;
7519;SDS011;3801;48.876;10.184;2023-07-02T18:08:26;15.73;;;11.27;;
7519;SDS011;3801;48.876;10.184;2023-07-02T18:13:29;16.63;;;11.57;;
7519;SDS011;3801;48.876;10.184;2023-07-02T18:18:34;21.30;;;12.27;;
7519;SDS011;3801;48.876;10.184;2023-07-02T18:23:37;20.77;;;11.53;;
7519;SDS011;3801;48.876;10.184;2023-07-02T18:28:41;17.20;;;11.33;;
7519;SDS011;3801;48.876;10.184;2023-07-02T18:33:46;20.10;;;12.03;;
7519;SDS011;3801;48.876;10.184;2023-07-02T18:38:49;18.00;;;11.27;;
7519;SDS011;3801;48.876;10.184;2023-07-02T18:43:52;16.67;;;11.20;;
7519;SDS011;3801;48.876;10.184;2023-07-02T18:48:58;16.07;;;11.20;;
7519;SDS011;3801;48.876;10.184;2023-07-02T18:54:02;14.83;;;10.90;;
7519;SDS011;3801;48.876;10.184;2023-07-02T18:59:05;17.07;;;11.23;;
7519;SDS011;3801;48.876;10.184;2023-07-02T19:04:10;17.20;;;11.90;;
7519;SDS011;3801;48.876;10.184;2023-07-02T19:09:13;17.43;;;10.73;;
7519;SDS011;3801;48.876;10.184;2023-07-02T19:14:17;16.87;;;11.10;;
7519;SDS011;3801;48.876;10.184;2023-07-02T19:19:22;18.03;;;12.40;;
7519;SDS011;3801;48.876;10.184;2023-07-02T19:24:25;19.53;;;11.93;;
7519;SDS011;3801;48.876;10.184;2023-07-02T19:29:29;18.20;;;11.07;;
7519;SDS011;3801;48.876;10.184;2023-07-02T19:34:37;21.70;;;11.27;;
7519;SDS011;3801;48.876;10.184;2023-07-02T19:39:44;20.60;;;11.07;;
7519;SDS011;3801;48.876;10.184;2023-07-02T19:44:51;20.73;;;11.20;;
7519;SDS011;3801;48.876;10.184;2023-07-02T19:49:57;21.17;;;11.80;;
7519;SDS011;3801;48.876;10.184;2023-07-02T19:55:01;18.90;;;11.90;;
7519;SDS011;3801;48.876;10.184;2023-07-02T20:00:06;20.50;;;11.83;;
7519;SDS011;3801;48.876;10.184;2023-07-02T20:05:12;19.37;;;11.47;;
7519;SDS011;3801;48.876;10.184;2023-07-02T20:10:17;16.30;;;10.87;;
7519;SDS011;3801;48.876;10.184;2023-07-02T20:15:22;18.70;;;11.37;;
7519;SDS011;3801;48.876;10.184;2023-07-02T20:20:27;19.80;;;11.20;;
7519;SDS011;3801;48.876;10.184;2023-07-02T20:25:35;17.97;;;10.97;;
7519;SDS011;3801;48.876;10.184;2023-07-02T20:30:41;17.87;;;11.33;;
7519;SDS011;3801;48.876;10.184;2023-07-02T20:35:48;17.20;;;11.17;;
7519;SDS011;3801;48.876;10.184;2023-07-02T20:40:55;22.73;;;12.30;;
7519;SDS011;3801;48.876;10.184;2023-07-02T20:46:03;20.03;;;12.07;;
7519;SDS011;3801;48.876;10.184;2023-07-02T20:51:08;24.00;;;11.83;;
7519;SDS011;3801;48.876;10.184;2023-07-02T20:56:12;21.93;;;12.00;;
7519;SDS011;3801;48.876;10.184;2023-07-02T21:01:16;18.90;;;11.67;;
7519;SDS011;3801;48.876;10.184;2023-07-02T21:06:21;21.03;;;12.30;;
7519;SDS011;3801;48.876;10.184;2023-07-02T21:11:26;17.50;;;11.20;;
7519;SDS011;3801;48.876;10.184;2023-07-02T21:16:38;19.33;;;11.63;;
7519;SDS011;3801;48.876;10.184;2023-07-02T21:21:43;20.43;;;11.83;;
7519;SDS011;3801;48.876;10.184;2023-07-02T21:26:48;21.23;;;12.87;;
7519;SDS011;3801;48.876;10.184;2023-07-02T21:31:53;21.80;;;12.10;;
7519;SDS011;3801;48.876;10.184;2023-07-02T21:36:59;21.17;;;13.07;;
7519;SDS011;3801;48.876;10.184;2023-07-02T21:42:02;24.70;;;13.47;;
7519;SDS011;3801;48.876;10.184;2023-07-02T21:47:06;23.57;;;12.80;;
7519;SDS011;3801;48.876;10.184;2023-07-02T21:52:11;18.17;;;12.87;;
7519;SDS011;3801;48.876;10.184;2023-07-02T21:57:15;22.90;;;12.53;;
7519;SDS011;3801;48.876;10.184;2023-07-02T22:02:18;21.73;;;12.70;;
7519;SDS011;3801;48.876;10.184;2023-07-02T22:07:23;19.93;;;12.67;;
7519;SDS011;3801;48.876;10.184;2023-07-02T22:12:27;19.53;;;12.20;;
7519;SDS011;3801;48.876;10.184;2023-07-02T22:17:30;21.97;;;12.67;;
7519;SDS011;3801;48.876;10.184;2023-07-02T22:22:35;21.10;;;12.13;;
7519;SDS011;3801;48.876;10.184;2023-07-02T22:27:39;19.57;;;12.03;;
7519;SDS011;3801;48.876;10.184;2023-07-02T22:32:43;20.63;;;12.93;;
7519;SDS011;3801;48.876;10.184;2023-07-02T22:37:47;18.87;;;11.43;;
7519;SDS011;3801;48.876;10.184;2023-07-02T22:42:51;18.60;;;11.87;;
7519;SDS011;3801;48.876;10.184;2023-07-02T22:47:54;21.00;;;12.30;;
7519;SDS011;3801;48.876;10.184;2023-07-02T22:52:59;22.00;;;12.50;;
7519;SDS011;3801;48.876;10.184;2023-07-02T22:58:02;22.53;;;12.40;;
7519;SDS011;3801;48.876;10.184;2023-07-02T23:03:06;20.90;;;12.23;;
7519;SDS011;3801;48.876;10.184;2023-07-02T23:08:12;21.40;;;12.93;;
7519;SDS011;3801;48.876;10.184;2023-07-02T23:13:16;20.63;;;11.70;;
7519;SDS011;3801;48.876;10.184;2023-07-02T23:18:19;22.20;;;11.93;;
7519;SDS011;3801;48.876;10.184;2023-07-02T23:23:24;21.70;;;12.50;;
7519;SDS011;3801;48.876;10.184;2023-07-02T23:28:30;19.37;;;11.53;;
7519;SDS011;3801;48.876;10.184;2023-07-02T23:33:35;19.97;;;12.03;;
7519;SDS011;3801;48.876;10.184;2023-07-02T23:38:40;21.93;;;10.97;;
7519;SDS011;3801;48.876;10.184;2023-07-02T23:43:44;20.20;;;11.63;;
7519;SDS011;3801;48.876;10.184;2023-07-02T23:48:48;22.57;;;11.90;;
7519;SDS011;3801;48.876;10.184;2023-07-02T23:53:53;18.13;;;11.40;;
7519;SDS011;3801;48.876;10.184;2023-07-02T23:58:56;19.07;;;11.40;;
